Time;durP1;ratioP1;P1;durP2;ratioP2;P2;SDS_P1;SDS_P2;PMS_P1;PMS_P2;Temp;Humidity;BMP_temperature;BMP_pressure;BME280_temperature;BME280_humidity;BME280_pressure;Samples;Min_cycle;Max_cycle;Signal;HPM_P1;HPM_P2
2023/10/09 00:02:09;;;;;;;24.00;13.57;;;16.00;99.90;;;;;;5038502;28;20063;-73
2023/10/09 00:04:36;;;;;;;24.50;14.50;;;16.10;99.90;;;;;;5049746;28;20374;-73
2023/10/09 00:07:04;;;;;;;24.02;13.77;;;16.20;99.90;;;;;;5046091;28;20097;-73
2023/10/09 00:09:33;;;;;;;22.13;14.20;;;16.20;99.90;;;;;;5048539;28;20013;-73
2023/10/09 00:12:00;;;;;;;24.75;14.30;;;16.20;99.90;;;;;;5049710;28;20476;-73
2023/10/09 00:14:33;;;;;;;28.15;14.05;;;16.30;99.90;;;;;;5043242;28;20024;-73
2023/10/09 00:17:44;;;;;;;27.02;14.43;;;16.30;99.90;;;;;;5046141;28;20025;-73
2023/10/09 00:19:51;;;;;;;23.52;13.25;;;16.30;99.90;;;;;;5043380;28;20034;-73
2023/10/09 00:22:26;;;;;;;23.75;13.43;;;16.40;99.90;;;;;;5049925;28;20040;-73
2023/10/09 00:25:11;;;;;;;25.30;13.23;;;16.40;99.90;;;;;;5048360;28;20108;-73
2023/10/09 00:27:42;;;;;;;20.65;12.30;;;16.40;99.90;;;;;;5049963;28;20028;-73
2023/10/09 00:30:19;;;;;;;23.13;13.18;;;16.40;99.90;;;;;;5049095;28;20220;-73
2023/10/09 00:33:07;;;;;;;26.58;13.10;;;16.40;99.90;;;;;;5037914;28;20025;-73
2023/10/09 00:35:37;;;;;;;25.83;12.70;;;16.50;99.90;;;;;;5049985;28;20389;-73
2023/10/09 00:38:14;;;;;;;22.23;13.10;;;16.50;99.90;;;;;;5046855;28;20484;-73
2023/10/09 00:40:46;;;;;;;26.13;13.45;;;16.50;99.90;;;;;;5049619;28;20025;-73
2023/10/09 00:43:15;;;;;;;22.40;12.82;;;16.50;99.90;;;;;;5039840;28;20052;-73
2023/10/09 00:45:44;;;;;;;25.42;12.38;;;16.50;99.90;;;;;;5049233;28;20381;-73
2023/10/09 00:48:14;;;;;;;23.90;12.27;;;16.60;99.90;;;;;;5048333;28;20113;-73
2023/10/09 00:50:46;;;;;;;27.40;13.07;;;16.60;99.90;;;;;;5047466;28;20433;-73
2023/10/09 00:53:18;;;;;;;21.67;13.10;;;16.60;99.90;;;;;;5049636;28;20021;-73
2023/10/09 00:55:55;;;;;;;27.63;13.23;;;16.60;99.90;;;;;;5038639;28;20033;-73
2023/10/09 00:58:23;;;;;;;29.10;13.02;;;16.50;99.90;;;;;;5048145;28;20445;-73
2023/10/09 01:00:52;;;;;;;23.30;12.88;;;16.60;99.90;;;;;;5043815;28;20033;-73
2023/10/09 01:03:22;;;;;;;24.58;13.38;;;16.60;99.90;;;;;;5039781;28;20040;-73
2023/10/09 01:09:09;;;;;;;25.90;13.63;;;16.60;99.90;;;;;;5036184;28;20025;-73
2023/10/09 01:11:29;;;;;;;22.42;12.65;;;16.60;99.90;;;;;;5048357;28;20037;-73
2023/10/09 01:14:10;;;;;;;23.23;12.75;;;16.60;99.90;;;;;;5049273;28;20445;-73
2023/10/09 01:16:36;;;;;;;27.48;12.55;;;16.60;99.90;;;;;;5048884;28;20033;-73
2023/10/09 01:19:12;;;;;;;25.77;12.30;;;16.60;99.90;;;;;;5048666;28;20568;-73
2023/10/09 01:21:39;;;;;;;24.58;12.55;;;16.70;99.90;;;;;;5038289;28;20033;-73
2023/10/09 01:24:08;;;;;;;20.52;12.23;;;16.60;99.90;;;;;;5043474;28;20071;-73
2023/10/09 01:26:39;;;;;;;20.73;12.93;;;16.70;99.90;;;;;;5045936;28;20032;-73
2023/10/09 01:29:10;;;;;;;26.70;12.95;;;16.70;99.90;;;;;;5041176;28;20096;-73
2023/10/09 01:31:38;;;;;;;26.25;12.68;;;16.70;99.90;;;;;;5048837;28;20025;-73
2023/10/09 01:34:09;;;;;;;26.20;13.85;;;16.70;99.90;;;;;;5049350;28;20024;-73
2023/10/09 01:36:39;;;;;;;28.30;14.23;;;16.70;99.90;;;;;;5043751;28;20083;-73
2023/10/09 01:39:10;;;;;;;27.48;13.45;;;16.70;99.90;;;;;;5049154;28;20043;-73
2023/10/09 01:41:45;;;;;;;25.65;13.00;;;16.70;99.90;;;;;;5042998;28;20025;-73
2023/10/09 01:44:12;;;;;;;24.90;13.70;;;16.70;99.90;;;;;;5038740;28;20029;-73
2023/10/09 01:46:38;;;;;;;26.58;13.48;;;16.70;99.90;;;;;;5044680;28;20433;-73
2023/10/09 01:49:10;;;;;;;24.77;13.52;;;16.70;99.90;;;;;;5048377;28;20029;-73
2023/10/09 01:51:38;;;;;;;24.05;13.73;;;16.70;99.90;;;;;;5049058;28;20041;-74
2023/10/09 01:54:04;;;;;;;26.20;13.70;;;16.70;99.90;;;;;;5048190;28;20017;-73
2023/10/09 01:56:29;;;;;;;21.33;12.93;;;16.70;99.90;;;;;;5048217;28;20484;-73
2023/10/09 01:58:57;;;;;;;27.15;13.75;;;16.80;99.90;;;;;;5049106;28;20028;-73
2023/10/09 02:01:23;;;;;;;26.45;13.35;;;16.70;99.90;;;;;;5046421;28;20072;-73
2023/10/09 02:03:51;;;;;;;24.70;12.73;;;16.70;99.90;;;;;;5049036;28;20100;-73
2023/10/09 02:06:27;;;;;;;22.10;12.75;;;16.70;99.90;;;;;;5050208;28;20036;-73
2023/10/09 02:08:53;;;;;;;22.58;13.23;;;16.70;99.90;;;;;;5043404;28;20017;-73
2023/10/09 02:11:24;;;;;;;23.55;12.73;;;16.70;99.90;;;;;;5051904;28;20035;-73
2023/10/09 02:14:01;;;;;;;27.63;13.88;;;16.70;99.90;;;;;;5044621;28;20400;-73
2023/10/09 02:16:29;;;;;;;21.85;12.70;;;16.70;99.90;;;;;;5037704;28;20041;-73
2023/10/09 02:18:58;;;;;;;28.83;12.63;;;16.70;99.90;;;;;;5049043;28;20029;-73
2023/10/09 02:21:34;;;;;;;23.48;12.07;;;16.70;99.90;;;;;;5051475;28;20024;-73
2023/10/09 02:24:08;;;;;;;18.63;12.23;;;16.70;99.90;;;;;;5052140;28;20025;-73
2023/10/09 02:27:06;;;;;;;26.23;12.32;;;16.70;99.90;;;;;;5052589;28;20547;-73
2023/10/09 02:29:26;;;;;;;21.23;12.05;;;16.70;99.90;;;;;;5051416;28;20028;-73
2023/10/09 02:31:52;;;;;;;25.50;12.40;;;16.70;99.90;;;;;;5052208;28;20033;-73
2023/10/09 02:34:27;;;;;;;19.42;12.10;;;16.70;99.90;;;;;;5051347;28;20446;-73
2023/10/09 02:37:05;;;;;;;24.10;12.38;;;16.70;99.90;;;;;;5044212;28;20432;-73
2023/10/09 02:39:36;;;;;;;19.67;11.48;;;16.70;99.90;;;;;;5051362;28;20040;-73
2023/10/09 02:44:46;;;;;;;20.98;10.90;;;16.70;99.90;;;;;;5051911;28;20021;-73
2023/10/09 02:47:24;;;;;;;24.48;11.15;;;16.70;99.90;;;;;;5051536;28;20090;-73
2023/10/09 02:49:50;;;;;;;23.23;10.77;;;16.70;99.90;;;;;;5050609;28;20373;-73
2023/10/09 02:52:24;;;;;;;24.08;11.45;;;16.70;99.90;;;;;;5050455;28;20045;-73
2023/10/09 02:54:59;;;;;;;23.80;10.93;;;16.80;99.90;;;;;;5052261;28;20365;-73
2023/10/09 02:57:46;;;;;;;24.88;11.15;;;16.80;99.90;;;;;;5051545;28;20021;-72
2023/10/09 03:00:18;;;;;;;22.88;11.82;;;16.80;99.90;;;;;;5051378;28;20032;-73
2023/10/09 03:02:48;;;;;;;22.90;11.48;;;16.80;99.90;;;;;;5044363;28;20428;-73
2023/10/09 03:05:14;;;;;;;22.02;11.23;;;16.90;99.90;;;;;;5051366;28;20111;-73
2023/10/09 03:07:40;;;;;;;21.90;12.00;;;16.90;99.90;;;;;;5051586;28;20074;-73
2023/10/09 03:10:09;;;;;;;25.52;11.38;;;16.90;99.90;;;;;;5050876;28;20021;-73
2023/10/09 03:12:35;;;;;;;25.05;11.95;;;16.90;99.90;;;;;;5051318;28;20035;-73
2023/10/09 03:15:02;;;;;;;28.58;12.57;;;16.90;99.90;;;;;;5050896;28;20191;-73
2023/10/09 03:17:28;;;;;;;24.98;11.95;;;16.90;99.90;;;;;;5051007;28;20072;-73
2023/10/09 03:19:54;;;;;;;24.27;12.13;;;16.90;99.90;;;;;;5050750;28;20441;-73
2023/10/09 03:22:20;;;;;;;25.48;11.93;;;16.90;99.90;;;;;;5050696;28;20055;-73
2023/10/09 03:24:46;;;;;;;22.08;12.40;;;16.90;99.90;;;;;;5045062;28;20457;-73
2023/10/09 03:27:14;;;;;;;30.83;12.00;;;17.00;99.90;;;;;;5044273;28;20014;-73
2023/10/09 03:29:40;;;;;;;30.90;12.68;;;17.00;99.90;;;;;;5050754;28;20009;-73
2023/10/09 03:32:06;;;;;;;25.23;12.68;;;17.00;99.90;;;;;;5049101;28;20028;-73
2023/10/09 03:34:32;;;;;;;24.92;12.18;;;17.00;99.90;;;;;;5050174;28;20017;-73
2023/10/09 03:37:04;;;;;;;28.45;11.38;;;17.00;99.90;;;;;;5051091;28;20028;-73
2023/10/09 03:39:41;;;;;;;25.73;11.88;;;17.00;99.90;;;;;;5045947;28;20017;-73
2023/10/09 03:42:11;;;;;;;24.17;11.90;;;17.00;99.90;;;;;;5044510;28;20057;-73
2023/10/09 03:44:41;;;;;;;28.88;11.75;;;17.00;99.90;;;;;;5050898;28;20077;-73
2023/10/09 03:47:10;;;;;;;21.27;11.57;;;17.00;99.90;;;;;;5048760;28;20016;-73
2023/10/09 03:49:39;;;;;;;25.17;11.25;;;17.00;99.90;;;;;;5033210;28;20067;-73
2023/10/09 03:52:06;;;;;;;21.77;11.20;;;17.00;99.90;;;;;;5045037;28;20528;-73
2023/10/09 03:54:34;;;;;;;21.15;9.90;;;17.00;99.90;;;;;;5050897;28;20097;-73
2023/10/09 03:57:00;;;;;;;23.67;10.52;;;17.00;99.90;;;;;;5050601;28;20071;-73
2023/10/09 03:59:30;;;;;;;22.25;9.60;;;17.10;99.90;;;;;;5038424;28;20072;-73
2023/10/09 04:01:58;;;;;;;21.60;9.77;;;17.10;99.90;;;;;;5047006;28;20044;-73
2023/10/09 04:04:24;;;;;;;18.52;8.88;;;17.10;99.90;;;;;;5049819;28;20025;-73
2023/10/09 04:06:54;;;;;;;18.45;8.55;;;17.20;99.90;;;;;;5050637;28;20364;-73
2023/10/09 04:11:46;;;;;;;19.85;8.52;;;17.30;99.90;;;;;;5050119;28;20706;-73
2023/10/09 04:14:33;;;;;;;19.33;8.85;;;17.30;99.90;;;;;;5047899;28;20032;-73
2023/10/09 04:20:16;;;;;;;16.80;8.40;;;17.40;99.90;;;;;;5043569;28;20027;-73
2023/10/09 04:22:50;;;;;;;15.57;8.73;;;17.50;99.90;;;;;;5047713;28;20029;-73
2023/10/09 04:25:26;;;;;;;20.23;8.50;;;17.50;99.90;;;;;;5042584;28;20033;-73
2023/10/09 04:42:19;;;;;;;22.90;8.82;;;17.60;99.90;;;;;;5050491;28;20591;-74
2023/10/09 04:44:22;;;;;;;17.73;8.45;;;17.60;99.90;;;;;;5051292;28;20044;-74
2023/10/09 04:50:01;;;;;;;;;;;17.60;99.90;;;;;;5056072;28;20438;-74
2023/10/09 04:57:37;;;;;;;19.05;8.45;;;17.60;99.90;;;;;;5046726;28;20029;-74
2023/10/09 05:00:06;;;;;;;21.92;8.18;;;17.60;99.90;;;;;;5046405;28;20431;-74
2023/10/09 05:02:36;;;;;;;20.33;8.57;;;17.60;99.90;;;;;;5046339;28;20033;-74
2023/10/09 05:05:47;;;;;;;24.90;8.68;;;17.60;99.90;;;;;;5049163;28;20036;-74
2023/10/09 05:08:49;;;;;;;20.50;7.80;;;17.60;99.90;;;;;;5044013;28;20037;-74
2023/10/09 05:19:28;;;;;;;20.63;8.05;;;17.70;99.90;;;;;;5048915;28;20031;-73
2023/10/09 05:21:53;;;;;;;18.48;7.82;;;17.70;99.90;;;;;;5045402;28;20135;-74
2023/10/09 05:24:19;;;;;;;18.20;7.85;;;17.70;99.90;;;;;;5048947;28;20554;-75
2023/10/09 05:32:05;;;;;;;21.35;7.40;;;17.80;99.90;;;;;;5049648;28;20036;-74
2023/10/09 05:34:36;;;;;;;19.15;8.10;;;17.80;99.90;;;;;;5048520;28;20029;-74
2023/10/09 05:37:22;;;;;;;15.35;7.68;;;17.80;99.90;;;;;;5048783;28;20037;-76
2023/10/09 05:42:42;;;;;;;20.70;8.27;;;17.80;99.90;;;;;;5042049;28;20041;-74
2023/10/09 05:47:53;;;;;;;27.92;8.10;;;17.80;99.90;;;;;;5051972;28;20029;-75
2023/10/09 06:03:54;;;;;;;22.73;7.65;;;17.80;99.90;;;;;;5043194;28;20029;-74
2023/10/09 06:11:49;;;;;;;19.95;8.68;;;17.70;99.90;;;;;;5040788;28;20056;-75
2023/10/09 06:14:25;;;;;;;16.73;8.18;;;17.70;99.90;;;;;;5043218;28;20431;-75
2023/10/09 06:19:27;;;;;;;24.35;8.30;;;17.70;99.90;;;;;;5050344;28;20376;-75
2023/10/09 06:34:51;;;;;;;;;;;17.70;99.90;;;;;;5052816;28;20052;-75
2023/10/09 06:42:33;;;;;;;21.08;8.02;;;17.70;99.90;;;;;;5046225;28;20551;-75
2023/10/09 06:47:42;;;;;;;20.58;7.93;;;17.70;99.90;;;;;;5046456;28;20044;-75
2023/10/09 06:50:24;;;;;;;19.85;7.93;;;17.70;99.90;;;;;;5051628;28;20100;-75
2023/10/09 06:58:25;;;;;;;21.77;8.15;;;17.80;99.90;;;;;;5047817;28;20539;-75
2023/10/09 07:03:35;;;;;;;21.38;7.72;;;17.80;99.90;;;;;;5050100;28;20417;-75
2023/10/09 07:06:23;;;;;;;18.98;7.38;;;17.80;99.90;;;;;;5051127;28;20029;-75
2023/10/09 07:09:15;;;;;;;23.60;7.32;;;17.90;99.90;;;;;;5051160;28;20440;-75
2023/10/09 07:24:57;;;;;;;16.80;8.55;;;18.00;99.90;;;;;;5051271;28;20025;-75
2023/10/09 07:30:35;;;;;;;18.67;8.57;;;18.00;99.90;;;;;;5051042;28;20035;-75
2023/10/09 07:35:57;;;;;;;24.23;9.70;;;18.00;99.90;;;;;;5042908;28;20257;-74
2023/10/09 07:38:28;;;;;;;21.33;9.57;;;18.00;99.90;;;;;;5050574;28;20059;-75
2023/10/09 07:40:55;;;;;;;23.73;9.68;;;17.90;99.90;;;;;;5047706;28;20429;-75
2023/10/09 07:43:35;;;;;;;21.30;10.07;;;17.90;99.90;;;;;;5047288;28;20100;-75
2023/10/09 07:48:38;;;;;;;23.08;10.52;;;17.90;99.90;;;;;;5046667;28;20032;-75
2023/10/09 07:51:11;;;;;;;22.73;10.68;;;17.90;99.90;;;;;;5040496;28;20171;-75
2023/10/09 07:53:43;;;;;;;26.30;10.93;;;18.00;99.90;;;;;;5049216;28;20090;-75
2023/10/09 07:56:09;;;;;;;24.35;10.20;;;18.00;99.90;;;;;;5047828;28;20630;-75
2023/10/09 07:58:45;;;;;;;21.02;10.68;;;18.00;99.90;;;;;;5050657;28;20029;-75
2023/10/09 08:04:04;;;;;;;22.30;10.83;;;18.10;99.90;;;;;;5049516;28;20064;-75
2023/10/09 08:06:39;;;;;;;19.42;10.45;;;18.10;99.90;;;;;;5050399;28;20306;-75
2023/10/09 08:11:59;;;;;;;19.50;10.30;;;18.30;99.90;;;;;;5050167;28;20359;-75
2023/10/09 08:17:11;;;;;;;18.25;9.93;;;18.40;99.90;;;;;;5050689;28;20267;-75
2023/10/09 08:19:54;;;;;;;28.13;10.80;;;18.50;99.90;;;;;;5049759;28;20070;-75
2023/10/09 08:24:57;;;;;;;24.15;9.30;;;18.60;99.90;;;;;;5050452;28;20521;-75
2023/10/09 08:33:02;;;;;;;20.00;8.88;;;18.80;99.90;;;;;;5044562;28;20108;-75
2023/10/09 08:35:35;;;;;;;22.85;8.95;;;18.90;99.90;;;;;;5049934;28;20040;-75
2023/10/09 08:38:07;;;;;;;24.20;9.57;;;19.00;99.90;;;;;;5037966;28;20369;-75
2023/10/09 08:40:38;;;;;;;21.83;8.82;;;19.10;99.90;;;;;;5048292;28;20647;-75
2023/10/09 08:43:12;;;;;;;19.35;8.68;;;19.10;99.90;;;;;;5039393;28;20034;-75
2023/10/09 08:45:39;;;;;;;20.77;8.55;;;19.20;99.90;;;;;;5048907;28;20043;-75
2023/10/09 08:48:07;;;;;;;20.95;8.48;;;19.30;99.90;;;;;;5043027;28;20423;-75
2023/10/09 08:50:34;;;;;;;18.10;8.10;;;19.30;99.90;;;;;;5044448;28;20029;-75
2023/10/09 08:53:03;;;;;;;21.70;7.90;;;19.40;99.90;;;;;;5048335;28;20029;-75
2023/10/09 08:55:28;;;;;;;15.48;7.28;;;19.50;99.90;;;;;;5048566;28;20033;-75
2023/10/09 08:57:57;;;;;;;16.70;6.60;;;19.50;99.90;;;;;;5039867;28;20124;-75
2023/10/09 09:00:33;;;;;;;17.85;7.18;;;19.60;99.90;;;;;;5043089;28;20021;-75
2023/10/09 09:03:00;;;;;;;15.05;6.50;;;19.60;99.90;;;;;;5049441;28;20029;-74
2023/10/09 09:05:28;;;;;;;18.08;6.93;;;19.60;99.90;;;;;;5049510;28;20450;-75
2023/10/09 09:07:59;;;;;;;18.23;6.20;;;19.70;99.90;;;;;;5049166;28;20009;-75
2023/10/09 09:10:35;;;;;;;14.70;6.55;;;19.80;99.90;;;;;;5050793;28;20554;-75
2023/10/09 09:13:03;;;;;;;16.00;6.93;;;19.80;99.90;;;;;;5050500;28;20464;-75
2023/10/09 09:15:30;;;;;;;17.05;6.70;;;19.90;99.90;;;;;;5052390;28;20044;-75
2023/10/09 09:18:17;;;;;;;15.65;7.10;;;19.90;99.90;;;;;;5053028;28;20509;-75
2023/10/09 09:20:46;;;;;;;21.30;7.20;;;20.00;99.90;;;;;;5039648;28;20465;-75
2023/10/09 09:23:13;;;;;;;18.33;7.00;;;20.00;99.90;;;;;;5044640;28;20013;-75
2023/10/09 09:25:44;;;;;;;16.00;6.50;;;20.00;99.90;;;;;;5042944;28;20584;-75
2023/10/09 09:28:12;;;;;;;17.92;6.30;;;20.00;99.90;;;;;;5052712;28;20020;-75
2023/10/09 09:30:40;;;;;;;19.13;6.82;;;20.00;99.90;;;;;;5053096;28;20029;-75
2023/10/09 09:33:26;;;;;;;13.82;6.85;;;20.10;99.90;;;;;;5048254;28;20056;-74
2023/10/09 09:36:06;;;;;;;16.27;6.20;;;20.10;99.90;;;;;;5047760;28;20055;-75
2023/10/09 09:38:50;;;;;;;12.38;5.68;;;20.20;99.90;;;;;;5050750;28;20134;-75
2023/10/09 09:41:25;;;;;;;16.48;5.60;;;20.20;99.90;;;;;;5052666;28;20032;-75
2023/10/09 09:43:52;;;;;;;;;;;20.20;99.90;;;;;;5049753;28;20026;-75
2023/10/09 09:46:19;;;;;;;14.52;5.93;;;20.30;99.90;;;;;;5051786;28;19915;-75
2023/10/09 09:48:47;;;;;;;15.00;6.40;;;20.30;99.90;;;;;;5049990;28;20362;-75
2023/10/09 09:51:17;;;;;;;13.68;6.35;;;20.30;99.90;;;;;;5041548;28;20452;-75
2023/10/09 09:53:48;;;;;;;12.55;5.88;;;20.30;99.90;;;;;;5052563;28;20117;-75
2023/10/09 09:56:18;;;;;;;12.13;5.65;;;20.30;99.90;;;;;;5051889;28;20048;-75
2023/10/09 09:58:53;;;;;;;17.73;6.13;;;20.40;99.90;;;;;;5048964;28;20432;-75
2023/10/09 10:01:26;;;;;;;14.65;5.72;;;20.40;99.90;;;;;;5047988;28;20028;-75
2023/10/09 10:03:59;;;;;;;13.40;5.63;;;20.30;99.90;;;;;;5042157;28;20359;-75
2023/10/09 10:06:29;;;;;;;14.05;6.45;;;20.30;99.90;;;;;;5052234;28;20051;-75
2023/10/09 10:08:54;;;;;;;16.38;5.95;;;20.30;99.90;;;;;;5052060;28;20044;-75
2023/10/09 10:11:45;;;;;;;18.00;6.25;;;20.30;99.90;;;;;;5047534;28;20732;-75
2023/10/09 10:14:21;;;;;;;12.93;6.22;;;20.40;99.90;;;;;;5048300;28;20071;-75
2023/10/09 10:17:21;;;;;;;13.93;5.70;;;20.40;99.90;;;;;;5046689;28;20104;-75
2023/10/09 10:22:47;;;;;;;12.93;5.80;;;20.50;99.90;;;;;;5049049;28;20029;-75
2023/10/09 10:25:35;;;;;;;16.75;6.60;;;20.60;99.90;;;;;;5051289;28;20033;-75
2023/10/09 10:31:04;;;;;;;15.32;6.30;;;20.60;99.90;;;;;;5047026;28;20025;-75
2023/10/09 10:33:54;;;;;;;14.05;6.10;;;20.60;99.90;;;;;;5051745;28;20025;-75
2023/10/09 10:36:24;;;;;;;14.57;6.07;;;20.80;99.90;;;;;;5050928;28;20486;-75
2023/10/09 10:39:42;;;;;;;19.50;6.00;;;20.80;99.90;;;;;;5051614;28;20016;-75
2023/10/09 10:41:57;;;;;;;13.70;6.13;;;21.00;99.90;;;;;;5047396;28;20056;-75
2023/10/09 10:44:41;;;;;;;14.57;6.38;;;21.00;99.90;;;;;;5051785;28;20377;-75
2023/10/09 10:47:22;;;;;;;16.15;6.25;;;21.00;99.90;;;;;;5051161;28;20025;-75
2023/10/09 10:49:52;;;;;;;13.80;6.07;;;21.10;99.90;;;;;;5051854;28;20036;-75
2023/10/09 10:52:41;;;;;;;13.55;6.32;;;21.10;99.90;;;;;;5051253;28;20060;-75
2023/10/09 10:55:17;;;;;;;11.88;6.03;;;21.10;99.90;;;;;;5036196;28;20439;-75
2023/10/09 10:58:00;;;;;;;13.98;5.88;;;21.10;99.90;;;;;;5044755;28;20017;-75
2023/10/09 11:03:29;;;;;;;15.48;5.97;;;21.10;99.90;;;;;;5042776;28;20064;-75
2023/10/09 11:05:55;;;;;;;17.00;5.95;;;21.20;99.90;;;;;;5050482;28;20463;-75
2023/10/09 11:08:31;;;;;;;12.32;6.07;;;21.20;99.90;;;;;;5043384;28;20043;-75
2023/10/09 11:11:15;;;;;;;17.35;6.35;;;21.30;99.90;;;;;;5050947;28;20129;-75
2023/10/09 11:13:56;;;;;;;12.90;6.07;;;21.40;99.90;;;;;;5051626;28;20108;-75
2023/10/09 11:16:41;;;;;;;11.25;5.72;;;21.40;99.90;;;;;;5050995;28;20453;-75
2023/10/09 11:24:35;;;;;;;16.58;6.30;;;21.50;99.90;;;;;;5051068;28;20033;-75
2023/10/09 11:27:06;;;;;;;12.68;6.00;;;21.60;99.90;;;;;;5045295;28;20033;-76
2023/10/09 11:32:17;;;;;;;12.68;6.20;;;21.70;99.90;;;;;;5042039;28;20120;-76
2023/10/09 11:34:51;;;;;;;17.38;6.03;;;21.80;99.90;;;;;;5047559;28;20028;-76
2023/10/09 11:39:57;;;;;;;16.92;5.75;;;21.90;99.90;;;;;;5044360;28;20061;-76
2023/10/09 11:45:37;;;;;;;15.30;6.40;;;21.80;99.90;;;;;;5053320;28;20145;-76
2023/10/09 11:48:46;;;;;;;14.40;5.95;;;21.70;99.90;;;;;;5046243;28;20029;-76
2023/10/09 11:51:19;;;;;;;10.63;6.00;;;21.70;99.90;;;;;;5034447;28;20080;-76
2023/10/09 11:53:54;;;;;;;16.67;6.28;;;21.60;99.90;;;;;;5046675;28;20108;-76
2023/10/09 11:56:26;;;;;;;17.55;6.28;;;21.60;99.90;;;;;;5050717;28;20036;-76
2023/10/09 11:58:54;;;;;;;11.80;6.05;;;21.50;99.90;;;;;;5050182;28;20021;-76
2023/10/09 12:01:21;;;;;;;11.82;6.07;;;21.50;99.90;;;;;;5048386;28;20048;-76
2023/10/09 12:03:50;;;;;;;17.20;6.20;;;21.40;99.90;;;;;;5049562;28;20536;-76
2023/10/09 12:06:19;;;;;;;16.55;6.38;;;21.40;99.90;;;;;;5050043;28;20029;-76
2023/10/09 12:08:48;;;;;;;14.93;6.28;;;21.40;99.90;;;;;;5044427;28;20466;-76
2023/10/09 12:11:22;;;;;;;15.23;6.35;;;21.30;99.90;;;;;;5048438;28;20025;-76
2023/10/09 12:13:49;;;;;;;17.13;6.78;;;21.30;99.90;;;;;;5052101;28;20512;-75
2023/10/09 12:16:15;;;;;;;19.05;6.20;;;21.30;99.90;;;;;;5050750;28;20127;-76
2023/10/09 12:18:42;;;;;;;18.33;6.45;;;21.30;99.90;;;;;;5049268;28;20021;-76
2023/10/09 12:21:08;;;;;;;13.93;6.05;;;21.30;99.90;;;;;;5051146;28;20519;-76
2023/10/09 12:23:37;;;;;;;15.02;6.43;;;21.30;99.90;;;;;;5049217;28;20373;-76
2023/10/09 12:26:05;;;;;;;17.30;6.35;;;21.30;99.90;;;;;;5049304;28;20063;-76
2023/10/09 12:28:34;;;;;;;15.77;6.20;;;21.20;99.90;;;;;;5045179;28;20025;-76
2023/10/09 12:31:02;;;;;;;12.32;6.10;;;21.20;99.90;;;;;;5049930;28;20029;-76
2023/10/09 12:33:29;;;;;;;14.82;6.32;;;21.30;99.90;;;;;;5040111;28;20366;-76
2023/10/09 12:35:59;;;;;;;16.75;6.75;;;21.20;99.90;;;;;;5043535;28;20017;-76
2023/10/09 12:38:32;;;;;;;14.00;6.35;;;21.20;99.90;;;;;;5036439;28;20018;-75
2023/10/09 12:41:15;;;;;;;14.38;6.25;;;21.10;99.90;;;;;;5046361;28;20036;-76
2023/10/09 12:43:42;;;;;;;20.13;6.65;;;21.10;99.90;;;;;;5050420;28;20043;-77
2023/10/09 12:46:08;;;;;;;13.10;6.15;;;21.10;99.90;;;;;;5050572;28;20055;-76
2023/10/09 12:48:35;;;;;;;17.95;6.88;;;21.10;99.90;;;;;;5047315;28;20017;-76
2023/10/09 12:51:06;;;;;;;19.58;6.63;;;21.00;99.90;;;;;;5048012;28;20052;-77
2023/10/09 12:53:33;;;;;;;16.48;6.78;;;21.00;99.90;;;;;;5048681;28;20028;-77
2023/10/09 12:55:58;;;;;;;15.52;6.65;;;21.00;99.90;;;;;;5048130;28;20025;-76
2023/10/09 12:58:26;;;;;;;16.60;6.72;;;21.00;99.90;;;;;;5048736;28;20598;-77
2023/10/09 13:00:52;;;;;;;15.63;6.53;;;20.90;99.90;;;;;;5046479;28;20030;-76
2023/10/09 13:03:18;;;;;;;14.73;6.55;;;21.00;99.90;;;;;;5039607;28;20017;-76
2023/10/09 13:05:52;;;;;;;14.18;6.82;;;21.00;99.90;;;;;;5039479;28;20017;-76
2023/10/09 13:08:31;;;;;;;15.93;6.65;;;21.00;99.90;;;;;;5040579;28;20029;-77
2023/10/09 13:11:00;;;;;;;17.10;7.30;;;21.00;99.90;;;;;;5046065;28;20032;-76
2023/10/09 13:13:39;;;;;;;12.63;7.05;;;21.00;99.90;;;;;;5037738;28;20036;-76
2023/10/09 13:16:14;;;;;;;18.45;7.05;;;21.00;99.90;;;;;;5048634;28;20017;-77
2023/10/09 13:18:49;;;;;;;13.35;6.80;;;21.00;99.90;;;;;;5042543;28;20389;-76
2023/10/09 13:21:17;;;;;;;16.95;6.93;;;21.00;99.90;;;;;;5037040;28;20459;-77
2023/10/09 13:23:46;;;;;;;17.42;6.90;;;21.00;99.90;;;;;;5048373;28;20021;-77
2023/10/09 13:26:19;;;;;;;20.25;6.90;;;20.90;99.90;;;;;;5038046;28;20396;-77
2023/10/09 13:28:54;;;;;;;18.83;7.10;;;21.00;99.90;;;;;;5046045;28;20016;-76
2023/10/09 13:31:21;;;;;;;13.70;6.55;;;21.00;99.90;;;;;;5045676;28;20562;-77
2023/10/09 13:33:47;;;;;;;18.45;6.95;;;21.10;99.90;;;;;;5048263;28;20021;-77
2023/10/09 13:36:26;;;;;;;15.85;6.90;;;21.20;99.90;;;;;;5047518;28;20426;-77
2023/10/09 13:39:19;;;;;;;19.45;6.68;;;21.20;99.90;;;;;;5048057;28;20039;-77
2023/10/09 13:41:46;;;;;;;17.23;6.65;;;21.20;99.90;;;;;;5052194;28;20040;-76
2023/10/09 13:44:11;;;;;;;15.82;6.70;;;21.20;99.90;;;;;;5049584;28;20021;-76
2023/10/09 13:46:41;;;;;;;20.17;6.22;;;21.30;99.90;;;;;;5047070;28;20420;-76
2023/10/09 13:49:13;;;;;;;15.93;6.72;;;21.30;99.90;;;;;;5045042;28;20041;-76
2023/10/09 13:51:50;;;;;;;22.58;6.82;;;21.40;99.90;;;;;;5050025;28;20139;-76
2023/10/09 13:54:28;;;;;;;18.98;6.85;;;21.40;99.90;;;;;;5040417;28;20044;-76
2023/10/09 13:56:57;;;;;;;17.77;7.20;;;21.40;99.90;;;;;;5049904;28;20032;-76
2023/10/09 13:59:25;;;;;;;17.05;6.50;;;21.40;99.90;;;;;;5047308;28;20456;-76
2023/10/09 14:01:54;;;;;;;16.67;7.00;;;21.50;99.90;;;;;;5047858;28;20123;-76
2023/10/09 14:04:20;;;;;;;15.95;6.30;;;21.60;99.90;;;;;;5051629;28;20045;-76
2023/10/09 14:06:47;;;;;;;20.52;6.63;;;21.60;99.90;;;;;;5045017;28;20091;-76
2023/10/09 14:09:27;;;;;;;17.35;6.90;;;21.70;99.90;;;;;;5050220;28;20025;-76
2023/10/09 14:12:06;;;;;;;13.60;7.20;;;21.70;99.90;;;;;;5051379;28;20037;-76
2023/10/09 14:14:47;;;;;;;15.23;7.05;;;21.70;99.90;;;;;;5051156;28;20112;-76
2023/10/09 14:17:24;;;;;;;17.17;7.68;;;21.70;99.90;;;;;;5047626;28;20072;-76
2023/10/09 14:19:51;;;;;;;17.38;6.28;;;21.70;99.90;;;;;;5042684;28;20051;-76
2023/10/09 14:22:19;;;;;;;16.85;6.93;;;21.70;99.90;;;;;;5065686;28;20036;-76
2023/10/09 14:24:46;;;;;;;16.40;6.88;;;21.70;99.90;;;;;;5051438;28;20528;-76
2023/10/09 14:27:17;;;;;;;17.08;7.55;;;21.70;99.90;;;;;;5049421;28;20025;-76
2023/10/09 14:29:58;;;;;;;17.60;7.10;;;21.60;99.90;;;;;;5047755;28;20036;-76
2023/10/09 14:32:28;;;;;;;21.30;7.55;;;21.50;99.90;;;;;;5044688;28;20362;-77
2023/10/09 14:34:55;;;;;;;19.50;7.13;;;21.40;99.90;;;;;;5051279;28;20024;-76
2023/10/09 14:37:21;;;;;;;18.67;7.10;;;21.30;99.90;;;;;;5051986;28;20504;-76
2023/10/09 14:39:48;;;;;;;15.15;6.82;;;21.20;99.90;;;;;;5048631;28;20107;-76
2023/10/09 14:42:17;;;;;;;19.20;7.50;;;21.10;99.90;;;;;;5051908;28;20017;-76
2023/10/09 14:44:45;;;;;;;18.02;7.03;;;21.10;99.90;;;;;;5043422;28;20021;-76
2023/10/09 14:47:11;;;;;;;15.60;7.03;;;21.00;99.90;;;;;;5046864;28;20020;-76
2023/10/09 14:49:39;;;;;;;18.88;7.60;;;21.00;99.90;;;;;;5051519;28;20024;-76
2023/10/09 14:52:07;;;;;;;18.88;7.65;;;20.90;99.90;;;;;;5050813;28;20517;-77
2023/10/09 14:54:33;;;;;;;19.33;7.65;;;20.80;99.90;;;;;;5051982;28;20023;-77
2023/10/09 14:56:59;;;;;;;18.73;7.38;;;20.80;99.90;;;;;;5050178;28;20021;-76
2023/10/09 14:59:25;;;;;;;20.98;7.70;;;20.70;99.90;;;;;;5048110;28;20009;-76
2023/10/09 15:01:53;;;;;;;18.92;8.05;;;20.70;99.90;;;;;;5041929;28;20053;-76
2023/10/09 15:04:19;;;;;;;22.15;7.88;;;20.70;99.90;;;;;;5038054;28;20029;-76
2023/10/09 15:06:49;;;;;;;22.00;7.82;;;20.80;99.90;;;;;;5043524;28;20013;-72
2023/10/09 15:09:21;;;;;;;15.27;7.00;;;20.90;99.90;;;;;;5049988;28;20021;-72
2023/10/09 15:11:48;;;;;;;16.40;7.13;;;20.90;99.90;;;;;;5042901;28;20551;-73
2023/10/09 15:14:15;;;;;;;24.63;8.32;;;20.90;99.90;;;;;;5050562;28;20028;-73
2023/10/09 15:16:42;;;;;;;19.83;8.07;;;20.90;99.90;;;;;;5047878;28;20017;-73
2023/10/09 15:19:10;;;;;;;16.15;7.80;;;20.90;99.90;;;;;;5050729;28;20025;-73
2023/10/09 15:21:43;;;;;;;18.83;7.72;;;20.90;99.90;;;;;;5035777;28;20024;-72
2023/10/09 15:24:12;;;;;;;18.55;7.22;;;20.90;99.90;;;;;;5051159;28;20095;-73
2023/10/09 15:26:39;;;;;;;18.42;7.95;;;20.90;99.90;;;;;;5050367;28;20051;-73
2023/10/09 15:29:06;;;;;;;20.65;7.97;;;20.80;99.90;;;;;;5066248;28;20025;-73
2023/10/09 15:31:33;;;;;;;16.70;7.60;;;20.80;99.90;;;;;;5050163;28;20473;-73
2023/10/09 15:33:59;;;;;;;21.48;8.73;;;20.80;99.90;;;;;;5048738;28;20109;-73
2023/10/09 15:36:28;;;;;;;19.02;7.82;;;20.70;99.90;;;;;;5050318;28;20017;-73
2023/10/09 15:38:59;;;;;;;23.08;7.88;;;20.60;99.90;;;;;;5049814;28;20029;-76
2023/10/09 15:41:29;;;;;;;19.67;7.68;;;20.60;99.90;;;;;;5050979;28;20029;-76
2023/10/09 15:43:57;;;;;;;25.90;8.32;;;20.50;99.90;;;;;;5042472;28;20036;-75